Terminal Aerodrome Forecast
Issued by NWS

Home | Current Version | Previous Version | Text Only | Print | Product List | Glossary On
Versions: 1 2 3 4 5 6 7 8 9 10 11 12 13 14
626
FTUS44 KBMX 282320
TAFTOI
TAF
KTOI 282320Z 2900/2924 VRB03KT P6SM SCT045 BKN100
     FM290300 00000KT P6SM VCSH OVC100
     FM290900 00000KT P6SM BKN100=

USA.gov is the U.S. government's official web portal to all federal, state and local government web resources and services.